Sunderland, Vermont
Current Conditions -  °F | °C
As of 4:54 PM on Thursday 27 Nov 2014 (Local Time) from KDDH Reporting Station
Overcast Overcast  
Wind Chill: 27°   Ceiling: 3000
Heat Index: 27°   Visibility: 10mi
Dew Point: 22°   Wind: 3mph
Humidity: 81%   Direction: 200°SSW
Pressure: 29.97"   Gusts: NA
Location:  43.0661°N, 73.1407°W
Report Text: KDDH 272154Z AUTO 20003KT 10SM BKN030 OVC100 M03/M06 A2997 RMK AO2 SLP158 T10281056
Loading
Personal Weather Stations






























Interactive Weather Map New forecast layout! Learn more

10-Day Weather Forecast

Advertisements
Track Severe Weather on mobile